sensor_id;sensor_type;location;lat;lon;timestamp;P1;durP1;ratioP1;P2;durP2;ratioP2
61741;SDS011;47650;49.848;9.620;2024-01-15T00:00:38;43.40;;;16.65;;
61741;SDS011;47650;49.848;9.620;2024-01-15T00:03:04;46.60;;;21.05;;
61741;SDS011;47650;49.848;9.620;2024-01-15T00:05:29;43.63;;;16.73;;
61741;SDS011;47650;49.848;9.620;2024-01-15T00:07:57;45.03;;;17.77;;
61741;SDS011;47650;49.848;9.620;2024-01-15T00:10:25;46.10;;;21.20;;
61741;SDS011;47650;49.848;9.620;2024-01-15T00:12:51;50.17;;;22.08;;
61741;SDS011;47650;49.848;9.620;2024-01-15T00:15:16;46.63;;;20.02;;
61741;SDS011;47650;49.848;9.620;2024-01-15T00:17:42;54.42;;;23.63;;
61741;SDS011;47650;49.848;9.620;2024-01-15T00:20:07;42.45;;;18.77;;
61741;SDS011;47650;49.848;9.620;2024-01-15T00:22:33;47.90;;;21.73;;
61741;SDS011;47650;49.848;9.620;2024-01-15T00:25:00;46.70;;;22.45;;
61741;SDS011;47650;49.848;9.620;2024-01-15T00:27:26;53.88;;;21.10;;
61741;SDS011;47650;49.848;9.620;2024-01-15T00:29:51;51.38;;;23.30;;
61741;SDS011;47650;49.848;9.620;2024-01-15T00:32:17;47.10;;;19.17;;
61741;SDS011;47650;49.848;9.620;2024-01-15T00:34:44;43.60;;;19.42;;
61741;SDS011;47650;49.848;9.620;2024-01-15T00:37:10;40.58;;;16.08;;
61741;SDS011;47650;49.848;9.620;2024-01-15T00:39:35;44.75;;;19.70;;
61741;SDS011;47650;49.848;9.620;2024-01-15T00:42:01;56.05;;;23.67;;
61741;SDS011;47650;49.848;9.620;2024-01-15T00:44:27;41.80;;;18.02;;
61741;SDS011;47650;49.848;9.620;2024-01-15T00:46:54;42.90;;;17.83;;
61741;SDS011;47650;49.848;9.620;2024-01-15T00:49:19;47.92;;;21.20;;
61741;SDS011;47650;49.848;9.620;2024-01-15T00:51:46;49.22;;;20.42;;
61741;SDS011;47650;49.848;9.620;2024-01-15T00:54:13;39.72;;;18.20;;
61741;SDS011;47650;49.848;9.620;2024-01-15T00:56:39;48.55;;;20.77;;
61741;SDS011;47650;49.848;9.620;2024-01-15T00:59:05;45.13;;;21.15;;
61741;SDS011;47650;49.848;9.620;2024-01-15T01:01:31;51.78;;;22.77;;
61741;SDS011;47650;49.848;9.620;2024-01-15T01:03:58;48.10;;;22.73;;
61741;SDS011;47650;49.848;9.620;2024-01-15T01:06:23;48.55;;;18.80;;
61741;SDS011;47650;49.848;9.620;2024-01-15T01:08:48;33.30;;;16.63;;
61741;SDS011;47650;49.848;9.620;2024-01-15T01:11:14;46.67;;;19.50;;
61741;SDS011;47650;49.848;9.620;2024-01-15T01:13:43;51.35;;;22.05;;
61741;SDS011;47650;49.848;9.620;2024-01-15T01:16:09;42.80;;;20.85;;
61741;SDS011;47650;49.848;9.620;2024-01-15T01:18:34;43.67;;;17.92;;
61741;SDS011;47650;49.848;9.620;2024-01-15T01:21:00;39.90;;;18.15;;
61741;SDS011;47650;49.848;9.620;2024-01-15T01:23:25;49.88;;;21.13;;
61741;SDS011;47650;49.848;9.620;2024-01-15T01:25:50;29.52;;;13.52;;
61741;SDS011;47650;49.848;9.620;2024-01-15T01:28:17;46.25;;;21.08;;
61741;SDS011;47650;49.848;9.620;2024-01-15T01:30:42;42.92;;;19.38;;
61741;SDS011;47650;49.848;9.620;2024-01-15T01:33:08;40.05;;;16.23;;
61741;SDS011;47650;49.848;9.620;2024-01-15T01:35:33;44.75;;;19.08;;
61741;SDS011;47650;49.848;9.620;2024-01-15T01:37:58;40.28;;;17.13;;
61741;SDS011;47650;49.848;9.620;2024-01-15T01:40:24;36.33;;;16.15;;
61741;SDS011;47650;49.848;9.620;2024-01-15T01:42:49;38.50;;;17.63;;
61741;SDS011;47650;49.848;9.620;2024-01-15T01:45:14;28.52;;;15.23;;
61741;SDS011;47650;49.848;9.620;2024-01-15T01:47:40;34.15;;;14.75;;
61741;SDS011;47650;49.848;9.620;2024-01-15T01:50:06;40.88;;;19.35;;
61741;SDS011;47650;49.848;9.620;2024-01-15T01:52:32;40.05;;;19.20;;
61741;SDS011;47650;49.848;9.620;2024-01-15T01:55:00;43.28;;;20.58;;
61741;SDS011;47650;49.848;9.620;2024-01-15T01:57:27;43.22;;;20.65;;
61741;SDS011;47650;49.848;9.620;2024-01-15T01:59:53;41.80;;;17.70;;
61741;SDS011;47650;49.848;9.620;2024-01-15T02:02:21;39.53;;;18.02;;
61741;SDS011;47650;49.848;9.620;2024-01-15T02:04:54;31.70;;;14.07;;
61741;SDS011;47650;49.848;9.620;2024-01-15T02:07:19;39.20;;;17.08;;
61741;SDS011;47650;49.848;9.620;2024-01-15T02:09:45;35.83;;;14.65;;
61741;SDS011;47650;49.848;9.620;2024-01-15T02:12:11;42.95;;;20.80;;
61741;SDS011;47650;49.848;9.620;2024-01-15T02:14:39;32.75;;;14.68;;
61741;SDS011;47650;49.848;9.620;2024-01-15T02:19:32;35.92;;;17.58;;
61741;SDS011;47650;49.848;9.620;2024-01-15T02:21:58;38.00;;;15.93;;
61741;SDS011;47650;49.848;9.620;2024-01-15T02:24:23;32.40;;;16.88;;
61741;SDS011;47650;49.848;9.620;2024-01-15T02:26:50;35.20;;;17.33;;
61741;SDS011;47650;49.848;9.620;2024-01-15T02:29:15;32.58;;;15.70;;
61741;SDS011;47650;49.848;9.620;2024-01-15T02:31:41;35.38;;;17.48;;
61741;SDS011;47650;49.848;9.620;2024-01-15T02:34:07;26.52;;;14.00;;
61741;SDS011;47650;49.848;9.620;2024-01-15T02:36:39;32.85;;;16.92;;
61741;SDS011;47650;49.848;9.620;2024-01-15T02:39:05;27.67;;;13.35;;
61741;SDS011;47650;49.848;9.620;2024-01-15T02:41:30;34.78;;;17.30;;
61741;SDS011;47650;49.848;9.620;2024-01-15T02:43:58;31.25;;;14.82;;
61741;SDS011;47650;49.848;9.620;2024-01-15T02:46:25;35.58;;;19.40;;
61741;SDS011;47650;49.848;9.620;2024-01-15T02:48:51;28.95;;;13.75;;
61741;SDS011;47650;49.848;9.620;2024-01-15T02:51:16;34.47;;;16.27;;
61741;SDS011;47650;49.848;9.620;2024-01-15T02:53:42;21.95;;;10.57;;
61741;SDS011;47650;49.848;9.620;2024-01-15T02:56:13;33.03;;;15.98;;
61741;SDS011;47650;49.848;9.620;2024-01-15T02:58:38;33.67;;;16.15;;
61741;SDS011;47650;49.848;9.620;2024-01-15T03:01:03;31.40;;;16.20;;
61741;SDS011;47650;49.848;9.620;2024-01-15T03:03:28;29.30;;;13.43;;
61741;SDS011;47650;49.848;9.620;2024-01-15T03:05:54;29.58;;;13.75;;
61741;SDS011;47650;49.848;9.620;2024-01-15T03:08:20;30.13;;;15.13;;
61741;SDS011;47650;49.848;9.620;2024-01-15T03:10:47;27.73;;;12.73;;
61741;SDS011;47650;49.848;9.620;2024-01-15T03:13:15;18.60;;;9.00;;
61741;SDS011;47650;49.848;9.620;2024-01-15T03:15:40;28.77;;;13.05;;
61741;SDS011;47650;49.848;9.620;2024-01-15T03:18:12;33.28;;;17.63;;
61741;SDS011;47650;49.848;9.620;2024-01-15T03:20:38;34.67;;;17.05;;
61741;SDS011;47650;49.848;9.620;2024-01-15T03:23:04;24.13;;;11.25;;
61741;SDS011;47650;49.848;9.620;2024-01-15T03:25:32;30.95;;;14.88;;
61741;SDS011;47650;49.848;9.620;2024-01-15T03:27:57;31.75;;;16.05;;
61741;SDS011;47650;49.848;9.620;2024-01-15T03:30:24;31.63;;;15.77;;
61741;SDS011;47650;49.848;9.620;2024-01-15T03:32:49;30.17;;;15.00;;
61741;SDS011;47650;49.848;9.620;2024-01-15T03:35:15;30.23;;;15.23;;
61741;SDS011;47650;49.848;9.620;2024-01-15T03:37:41;27.88;;;14.25;;
61741;SDS011;47650;49.848;9.620;2024-01-15T03:40:16;26.10;;;13.05;;
61741;SDS011;47650;49.848;9.620;2024-01-15T03:42:41;27.95;;;14.07;;
61741;SDS011;47650;49.848;9.620;2024-01-15T03:45:06;30.52;;;13.70;;
61741;SDS011;47650;49.848;9.620;2024-01-15T03:47:34;28.27;;;14.60;;
61741;SDS011;47650;49.848;9.620;2024-01-15T03:49:59;30.27;;;16.65;;
61741;SDS011;47650;49.848;9.620;2024-01-15T03:52:25;28.35;;;14.93;;
61741;SDS011;47650;49.848;9.620;2024-01-15T03:54:51;28.25;;;14.50;;
61741;SDS011;47650;49.848;9.620;2024-01-15T03:57:17;26.42;;;14.10;;
61741;SDS011;47650;49.848;9.620;2024-01-15T03:59:42;31.10;;;14.23;;
61741;SDS011;47650;49.848;9.620;2024-01-15T04:02:12;27.83;;;14.48;;
61741;SDS011;47650;49.848;9.620;2024-01-15T04:04:40;35.25;;;15.13;;
61741;SDS011;47650;49.848;9.620;2024-01-15T04:07:08;22.77;;;11.82;;
61741;SDS011;47650;49.848;9.620;2024-01-15T04:09:40;28.27;;;14.25;;
61741;SDS011;47650;49.848;9.620;2024-01-15T04:12:07;31.98;;;13.95;;
61741;SDS011;47650;49.848;9.620;2024-01-15T04:14:34;24.00;;;11.57;;
61741;SDS011;47650;49.848;9.620;2024-01-15T04:17:01;29.25;;;14.82;;
61741;SDS011;47650;49.848;9.620;2024-01-15T04:19:27;19.60;;;9.55;;
61741;SDS011;47650;49.848;9.620;2024-01-15T04:21:54;28.20;;;13.30;;
61741;SDS011;47650;49.848;9.620;2024-01-15T04:24:19;32.92;;;14.88;;
61741;SDS011;47650;49.848;9.620;2024-01-15T04:26:45;21.23;;;12.02;;
61741;SDS011;47650;49.848;9.620;2024-01-15T04:29:12;36.65;;;16.92;;
61741;SDS011;47650;49.848;9.620;2024-01-15T04:31:37;30.65;;;14.32;;
61741;SDS011;47650;49.848;9.620;2024-01-15T04:34:03;28.77;;;14.30;;
61741;SDS011;47650;49.848;9.620;2024-01-15T04:36:28;35.00;;;15.80;;
61741;SDS011;47650;49.848;9.620;2024-01-15T04:38:56;32.05;;;13.82;;
61741;SDS011;47650;49.848;9.620;2024-01-15T04:41:21;20.48;;;10.30;;
61741;SDS011;47650;49.848;9.620;2024-01-15T04:43:46;24.13;;;10.13;;
61741;SDS011;47650;49.848;9.620;2024-01-15T04:46:12;33.42;;;15.63;;
61741;SDS011;47650;49.848;9.620;2024-01-15T04:48:37;34.67;;;16.95;;
61741;SDS011;47650;49.848;9.620;2024-01-15T04:51:04;33.70;;;14.35;;
61741;SDS011;47650;49.848;9.620;2024-01-15T04:53:30;39.60;;;18.55;;
61741;SDS011;47650;49.848;9.620;2024-01-15T04:55:55;26.58;;;11.05;;
61741;SDS011;47650;49.848;9.620;2024-01-15T04:58:20;29.75;;;14.02;;
61741;SDS011;47650;49.848;9.620;2024-01-15T05:00:59;31.42;;;15.80;;
61741;SDS011;47650;49.848;9.620;2024-01-15T05:03:24;34.35;;;16.35;;
61741;SDS011;47650;49.848;9.620;2024-01-15T05:05:49;22.77;;;11.32;;
61741;SDS011;47650;49.848;9.620;2024-01-15T05:08:14;30.60;;;15.88;;
61741;SDS011;47650;49.848;9.620;2024-01-15T05:10:40;27.50;;;12.43;;
61741;SDS011;47650;49.848;9.620;2024-01-15T05:13:05;27.65;;;12.10;;
61741;SDS011;47650;49.848;9.620;2024-01-15T05:15:31;32.67;;;16.33;;
61741;SDS011;47650;49.848;9.620;2024-01-15T05:17:57;25.20;;;11.43;;
61741;SDS011;47650;49.848;9.620;2024-01-15T05:20:23;30.58;;;14.77;;
61741;SDS011;47650;49.848;9.620;2024-01-15T05:22:48;20.90;;;9.65;;
61741;SDS011;47650;49.848;9.620;2024-01-15T05:25:15;31.25;;;14.25;;
61741;SDS011;47650;49.848;9.620;2024-01-15T05:27:40;26.27;;;13.20;;
61741;SDS011;47650;49.848;9.620;2024-01-15T05:30:05;30.23;;;14.75;;
61741;SDS011;47650;49.848;9.620;2024-01-15T05:32:31;32.58;;;16.33;;
61741;SDS011;47650;49.848;9.620;2024-01-15T05:34:58;25.10;;;11.07;;
61741;SDS011;47650;49.848;9.620;2024-01-15T05:37:23;23.90;;;11.20;;
61741;SDS011;47650;49.848;9.620;2024-01-15T05:39:48;20.30;;;10.65;;
61741;SDS011;47650;49.848;9.620;2024-01-15T05:42:15;27.27;;;14.43;;
61741;SDS011;47650;49.848;9.620;2024-01-15T05:44:40;24.77;;;11.60;;
61741;SDS011;47650;49.848;9.620;2024-01-15T05:47:12;25.13;;;11.00;;
61741;SDS011;47650;49.848;9.620;2024-01-15T05:49:38;21.80;;;11.02;;
61741;SDS011;47650;49.848;9.620;2024-01-15T05:52:03;27.58;;;12.00;;
61741;SDS011;47650;49.848;9.620;2024-01-15T05:54:30;24.95;;;11.82;;
61741;SDS011;47650;49.848;9.620;2024-01-15T05:56:55;25.13;;;13.35;;
61741;SDS011;47650;49.848;9.620;2024-01-15T05:59:21;25.75;;;11.85;;
61741;SDS011;47650;49.848;9.620;2024-01-15T06:01:46;30.52;;;14.20;;
61741;SDS011;47650;49.848;9.620;2024-01-15T06:04:11;28.30;;;13.30;;
61741;SDS011;47650;49.848;9.620;2024-01-15T06:06:37;25.95;;;13.57;;
61741;SDS011;47650;49.848;9.620;2024-01-15T06:09:02;29.30;;;12.40;;
61741;SDS011;47650;49.848;9.620;2024-01-15T06:11:30;29.02;;;12.98;;
61741;SDS011;47650;49.848;9.620;2024-01-15T06:13:57;24.27;;;12.63;;
61741;SDS011;47650;49.848;9.620;2024-01-15T06:16:22;21.17;;;10.57;;
61741;SDS011;47650;49.848;9.620;2024-01-15T06:18:49;19.92;;;10.07;;
61741;SDS011;47650;49.848;9.620;2024-01-15T06:21:14;22.70;;;12.57;;
61741;SDS011;47650;49.848;9.620;2024-01-15T06:23:40;27.27;;;12.02;;
61741;SDS011;47650;49.848;9.620;2024-01-15T06:26:05;22.25;;;10.95;;
61741;SDS011;47650;49.848;9.620;2024-01-15T06:28:31;29.73;;;14.45;;
61741;SDS011;47650;49.848;9.620;2024-01-15T06:30:56;23.73;;;12.15;;
61741;SDS011;47650;49.848;9.620;2024-01-15T06:33:22;27.83;;;13.65;;
61741;SDS011;47650;49.848;9.620;2024-01-15T06:35:48;25.80;;;13.40;;
61741;SDS011;47650;49.848;9.620;2024-01-15T06:38:14;19.60;;;9.63;;
61741;SDS011;47650;49.848;9.620;2024-01-15T06:40:39;24.00;;;11.63;;
61741;SDS011;47650;49.848;9.620;2024-01-15T06:43:10;31.38;;;14.65;;
61741;SDS011;47650;49.848;9.620;2024-01-15T06:45:36;22.55;;;11.20;;
61741;SDS011;47650;49.848;9.620;2024-01-15T06:48:02;24.17;;;12.68;;
61741;SDS011;47650;49.848;9.620;2024-01-15T06:50:27;25.58;;;11.02;;
61741;SDS011;47650;49.848;9.620;2024-01-15T06:52:53;22.27;;;11.20;;
61741;SDS011;47650;49.848;9.620;2024-01-15T06:55:18;20.42;;;10.95;;
61741;SDS011;47650;49.848;9.620;2024-01-15T06:57:46;19.02;;;11.07;;
61741;SDS011;47650;49.848;9.620;2024-01-15T07:00:12;16.42;;;9.10;;
61741;SDS011;47650;49.848;9.620;2024-01-15T07:02:38;20.38;;;10.27;;
61741;SDS011;47650;49.848;9.620;2024-01-15T07:05:03;25.80;;;13.02;;
61741;SDS011;47650;49.848;9.620;2024-01-15T07:07:30;20.80;;;10.98;;
61741;SDS011;47650;49.848;9.620;2024-01-15T07:09:57;19.85;;;11.00;;
61741;SDS011;47650;49.848;9.620;2024-01-15T07:12:22;24.38;;;12.52;;
61741;SDS011;47650;49.848;9.620;2024-01-15T07:14:49;24.10;;;12.80;;
61741;SDS011;47650;49.848;9.620;2024-01-15T07:17:14;24.85;;;13.45;;
61741;SDS011;47650;49.848;9.620;2024-01-15T07:19:40;28.52;;;13.60;;
61741;SDS011;47650;49.848;9.620;2024-01-15T07:22:08;21.20;;;10.63;;
61741;SDS011;47650;49.848;9.620;2024-01-15T07:24:33;26.77;;;13.15;;
61741;SDS011;47650;49.848;9.620;2024-01-15T07:27:03;24.13;;;13.32;;
61741;SDS011;47650;49.848;9.620;2024-01-15T07:29:29;27.70;;;14.32;;
61741;SDS011;47650;49.848;9.620;2024-01-15T07:32:04;32.70;;;15.45;;
61741;SDS011;47650;49.848;9.620;2024-01-15T07:34:30;26.80;;;13.63;;
61741;SDS011;47650;49.848;9.620;2024-01-15T07:36:56;22.15;;;12.95;;
61741;SDS011;47650;49.848;9.620;2024-01-15T07:39:22;21.88;;;11.20;;
61741;SDS011;47650;49.848;9.620;2024-01-15T07:41:50;28.25;;;12.90;;
61741;SDS011;47650;49.848;9.620;2024-01-15T07:44:16;25.90;;;12.48;;
61741;SDS011;47650;49.848;9.620;2024-01-15T07:46:46;30.77;;;14.70;;
61741;SDS011;47650;49.848;9.620;2024-01-15T07:49:12;32.03;;;16.45;;
61741;SDS011;47650;49.848;9.620;2024-01-15T07:51:37;27.05;;;14.32;;
61741;SDS011;47650;49.848;9.620;2024-01-15T07:54:05;31.25;;;14.57;;
61741;SDS011;47650;49.848;9.620;2024-01-15T07:56:31;25.90;;;13.30;;
61741;SDS011;47650;49.848;9.620;2024-01-15T07:58:56;26.15;;;15.15;;
61741;SDS011;47650;49.848;9.620;2024-01-15T08:01:22;24.02;;;11.43;;
61741;SDS011;47650;49.848;9.620;2024-01-15T08:03:48;27.98;;;14.65;;
61741;SDS011;47650;49.848;9.620;2024-01-15T08:06:14;27.63;;;13.73;;
61741;SDS011;47650;49.848;9.620;2024-01-15T08:08:41;27.13;;;13.15;;
61741;SDS011;47650;49.848;9.620;2024-01-15T08:11:08;22.73;;;11.55;;
61741;SDS011;47650;49.848;9.620;2024-01-15T08:13:34;28.67;;;14.13;;
61741;SDS011;47650;49.848;9.620;2024-01-15T08:16:00;21.23;;;12.00;;
61741;SDS011;47650;49.848;9.620;2024-01-15T08:18:27;28.95;;;14.57;;
61741;SDS011;47650;49.848;9.620;2024-01-15T08:20:52;21.50;;;11.38;;
61741;SDS011;47650;49.848;9.620;2024-01-15T08:23:18;23.02;;;12.13;;
61741;SDS011;47650;49.848;9.620;2024-01-15T08:25:45;25.33;;;13.55;;
61741;SDS011;47650;49.848;9.620;2024-01-15T08:28:10;23.58;;;10.27;;
61741;SDS011;47650;49.848;9.620;2024-01-15T08:30:41;19.77;;;10.38;;
61741;SDS011;47650;49.848;9.620;2024-01-15T08:33:07;28.10;;;14.43;;
61741;SDS011;47650;49.848;9.620;2024-01-15T08:35:32;24.80;;;12.20;;
61741;SDS011;47650;49.848;9.620;2024-01-15T08:38:01;20.27;;;10.85;;
61741;SDS011;47650;49.848;9.620;2024-01-15T08:40:27;25.40;;;13.68;;
61741;SDS011;47650;49.848;9.620;2024-01-15T08:42:52;24.40;;;10.63;;
61741;SDS011;47650;49.848;9.620;2024-01-15T08:45:18;22.77;;;10.80;;
61741;SDS011;47650;49.848;9.620;2024-01-15T08:47:45;26.88;;;13.95;;
61741;SDS011;47650;49.848;9.620;2024-01-15T08:50:12;29.25;;;15.23;;
61741;SDS011;47650;49.848;9.620;2024-01-15T08:52:38;25.33;;;14.85;;
61741;SDS011;47650;49.848;9.620;2024-01-15T08:55:04;22.42;;;11.27;;
61741;SDS011;47650;49.848;9.620;2024-01-15T08:57:31;22.00;;;11.45;;
61741;SDS011;47650;49.848;9.620;2024-01-15T08:59:57;22.05;;;13.40;;
61741;SDS011;47650;49.848;9.620;2024-01-15T09:02:23;21.15;;;11.55;;
61741;SDS011;47650;49.848;9.620;2024-01-15T09:04:49;20.63;;;11.98;;
61741;SDS011;47650;49.848;9.620;2024-01-15T09:07:15;19.90;;;11.43;;
61741;SDS011;47650;49.848;9.620;2024-01-15T09:09:41;24.40;;;12.40;;
61741;SDS011;47650;49.848;9.620;2024-01-15T09:12:07;21.50;;;12.15;;
61741;SDS011;47650;49.848;9.620;2024-01-15T09:14:33;25.00;;;13.25;;
61741;SDS011;47650;49.848;9.620;2024-01-15T09:16:59;23.67;;;12.70;;
61741;SDS011;47650;49.848;9.620;2024-01-15T09:19:25;16.17;;;8.45;;
61741;SDS011;47650;49.848;9.620;2024-01-15T09:21:50;22.42;;;11.63;;
61741;SDS011;47650;49.848;9.620;2024-01-15T09:24:16;26.25;;;13.75;;
61741;SDS011;47650;49.848;9.620;2024-01-15T09:26:42;17.00;;;9.82;;
61741;SDS011;47650;49.848;9.620;2024-01-15T09:29:07;18.60;;;8.98;;
61741;SDS011;47650;49.848;9.620;2024-01-15T09:31:32;25.70;;;11.75;;
61741;SDS011;47650;49.848;9.620;2024-01-15T09:33:58;19.63;;;10.30;;
61741;SDS011;47650;49.848;9.620;2024-01-15T09:36:26;16.88;;;8.95;;
61741;SDS011;47650;49.848;9.620;2024-01-15T09:38:51;24.83;;;12.50;;
61741;SDS011;47650;49.848;9.620;2024-01-15T09:41:24;24.33;;;15.20;;
61741;SDS011;47650;49.848;9.620;2024-01-15T09:43:51;16.85;;;9.88;;
61741;SDS011;47650;49.848;9.620;2024-01-15T09:46:17;17.30;;;10.35;;
61741;SDS011;47650;49.848;9.620;2024-01-15T09:48:43;25.02;;;13.02;;
61741;SDS011;47650;49.848;9.620;2024-01-15T09:51:10;17.58;;;9.38;;
61741;SDS011;47650;49.848;9.620;2024-01-15T09:53:37;20.88;;;11.15;;
61741;SDS011;47650;49.848;9.620;2024-01-15T09:56:04;14.70;;;8.73;;
61741;SDS011;47650;49.848;9.620;2024-01-15T09:58:30;17.20;;;9.55;;
61741;SDS011;47650;49.848;9.620;2024-01-15T10:00:56;20.83;;;11.63;;
61741;SDS011;47650;49.848;9.620;2024-01-15T10:03:22;20.30;;;11.32;;
61741;SDS011;47650;49.848;9.620;2024-01-15T10:05:48;17.27;;;11.00;;
61741;SDS011;47650;49.848;9.620;2024-01-15T10:08:14;16.13;;;8.30;;
61741;SDS011;47650;49.848;9.620;2024-01-15T10:10:39;22.17;;;11.75;;
61741;SDS011;47650;49.848;9.620;2024-01-15T10:13:06;19.63;;;9.23;;
61741;SDS011;47650;49.848;9.620;2024-01-15T10:15:34;18.83;;;10.73;;
61741;SDS011;47650;49.848;9.620;2024-01-15T10:18:03;20.80;;;10.95;;
61741;SDS011;47650;49.848;9.620;2024-01-15T10:20:31;17.63;;;10.57;;
61741;SDS011;47650;49.848;9.620;2024-01-15T10:22:57;16.38;;;9.20;;
61741;SDS011;47650;49.848;9.620;2024-01-15T10:25:23;22.90;;;11.32;;
61741;SDS011;47650;49.848;9.620;2024-01-15T10:28:03;19.52;;;10.77;;
61741;SDS011;47650;49.848;9.620;2024-01-15T10:30:35;18.45;;;11.23;;
61741;SDS011;47650;49.848;9.620;2024-01-15T10:33:01;12.88;;;8.43;;
61741;SDS011;47650;49.848;9.620;2024-01-15T10:35:30;16.98;;;10.50;;
61741;SDS011;47650;49.848;9.620;2024-01-15T10:38:00;18.35;;;11.85;;
61741;SDS011;47650;49.848;9.620;2024-01-15T10:40:26;16.38;;;7.85;;
61741;SDS011;47650;49.848;9.620;2024-01-15T10:42:52;17.67;;;10.60;;
61741;SDS011;47650;49.848;9.620;2024-01-15T10:45:18;16.25;;;9.18;;
61741;SDS011;47650;49.848;9.620;2024-01-15T10:47:45;19.45;;;12.38;;
61741;SDS011;47650;49.848;9.620;2024-01-15T10:50:11;18.67;;;9.48;;
61741;SDS011;47650;49.848;9.620;2024-01-15T10:52:37;12.65;;;7.82;;
61741;SDS011;47650;49.848;9.620;2024-01-15T10:55:05;15.65;;;9.60;;
61741;SDS011;47650;49.848;9.620;2024-01-15T10:57:32;16.23;;;10.32;;
61741;SDS011;47650;49.848;9.620;2024-01-15T11:00:01;15.82;;;10.93;;
61741;SDS011;47650;49.848;9.620;2024-01-15T11:02:34;12.68;;;8.13;;
61741;SDS011;47650;49.848;9.620;2024-01-15T11:05:01;11.43;;;7.60;;
61741;SDS011;47650;49.848;9.620;2024-01-15T11:07:27;13.20;;;8.85;;
61741;SDS011;47650;49.848;9.620;2024-01-15T11:09:56;13.40;;;11.00;;
61741;SDS011;47650;49.848;9.620;2024-01-15T11:12:26;12.25;;;9.23;;
61741;SDS011;47650;49.848;9.620;2024-01-15T11:14:51;14.52;;;9.93;;
61741;SDS011;47650;49.848;9.620;2024-01-15T11:17:19;12.02;;;8.38;;
61741;SDS011;47650;49.848;9.620;2024-01-15T11:19:46;14.57;;;10.30;;
61741;SDS011;47650;49.848;9.620;2024-01-15T11:25:18;15.18;;;9.27;;
61741;SDS011;47650;49.848;9.620;2024-01-15T11:27:45;12.32;;;8.13;;
61741;SDS011;47650;49.848;9.620;2024-01-15T11:30:19;15.55;;;9.38;;
61741;SDS011;47650;49.848;9.620;2024-01-15T11:32:48;14.82;;;9.82;;
61741;SDS011;47650;49.848;9.620;2024-01-15T11:35:13;15.85;;;10.02;;
61741;SDS011;47650;49.848;9.620;2024-01-15T11:45:27;13.00;;;7.15;;
61741;SDS011;47650;49.848;9.620;2024-01-15T11:48:06;15.27;;;9.02;;
61741;SDS011;47650;49.848;9.620;2024-01-15T11:50:43;11.85;;;8.45;;
61741;SDS011;47650;49.848;9.620;2024-01-15T11:55:51;11.98;;;7.57;;
61741;SDS011;47650;49.848;9.620;2024-01-15T11:58:17;12.85;;;7.03;;
61741;SDS011;47650;49.848;9.620;2024-01-15T12:00:49;12.50;;;8.23;;
61741;SDS011;47650;49.848;9.620;2024-01-15T12:03:16;13.32;;;8.88;;
61741;SDS011;47650;49.848;9.620;2024-01-15T12:05:43;15.15;;;10.27;;
61741;SDS011;47650;49.848;9.620;2024-01-15T12:08:08;14.50;;;8.60;;
61741;SDS011;47650;49.848;9.620;2024-01-15T12:10:54;14.32;;;9.95;;
61741;SDS011;47650;49.848;9.620;2024-01-15T12:13:19;17.65;;;9.65;;
61741;SDS011;47650;49.848;9.620;2024-01-15T12:15:46;14.40;;;8.13;;
61741;SDS011;47650;49.848;9.620;2024-01-15T12:18:14;10.25;;;6.82;;
61741;SDS011;47650;49.848;9.620;2024-01-15T12:20:41;14.50;;;8.07;;
61741;SDS011;47650;49.848;9.620;2024-01-15T12:23:08;11.05;;;7.70;;
61741;SDS011;47650;49.848;9.620;2024-01-15T12:25:33;10.85;;;6.63;;
61741;SDS011;47650;49.848;9.620;2024-01-15T12:28:00;13.38;;;8.55;;
61741;SDS011;47650;49.848;9.620;2024-01-15T12:30:28;14.85;;;10.98;;
61741;SDS011;47650;49.848;9.620;2024-01-15T12:32:56;12.60;;;7.28;;
61741;SDS011;47650;49.848;9.620;2024-01-15T12:35:23;13.60;;;8.43;;
61741;SDS011;47650;49.848;9.620;2024-01-15T12:37:51;12.50;;;8.07;;
61741;SDS011;47650;49.848;9.620;2024-01-15T12:40:20;10.68;;;6.70;;
61741;SDS011;47650;49.848;9.620;2024-01-15T12:42:53;10.15;;;6.97;;
61741;SDS011;47650;49.848;9.620;2024-01-15T12:45:24;12.50;;;8.80;;
61741;SDS011;47650;49.848;9.620;2024-01-15T12:47:55;11.32;;;8.15;;
61741;SDS011;47650;49.848;9.620;2024-01-15T12:50:23;9.20;;;5.40;;
61741;SDS011;47650;49.848;9.620;2024-01-15T12:52:51;9.73;;;6.18;;
61741;SDS011;47650;49.848;9.620;2024-01-15T12:55:17;10.60;;;7.13;;
61741;SDS011;47650;49.848;9.620;2024-01-15T12:57:42;11.70;;;7.70;;
61741;SDS011;47650;49.848;9.620;2024-01-15T13:00:07;10.98;;;7.78;;
61741;SDS011;47650;49.848;9.620;2024-01-15T13:02:37;13.25;;;8.35;;
61741;SDS011;47650;49.848;9.620;2024-01-15T13:05:22;12.57;;;8.23;;
61741;SDS011;47650;49.848;9.620;2024-01-15T13:07:48;12.73;;;9.05;;
61741;SDS011;47650;49.848;9.620;2024-01-15T13:10:17;14.15;;;8.13;;
61741;SDS011;47650;49.848;9.620;2024-01-15T13:12:44;11.82;;;7.93;;
61741;SDS011;47650;49.848;9.620;2024-01-15T13:15:13;10.13;;;7.00;;
61741;SDS011;47650;49.848;9.620;2024-01-15T13:17:41;9.07;;;6.32;;
61741;SDS011;47650;49.848;9.620;2024-01-15T13:20:07;8.32;;;6.07;;
61741;SDS011;47650;49.848;9.620;2024-01-15T13:22:39;10.95;;;7.00;;
61741;SDS011;47650;49.848;9.620;2024-01-15T13:25:05;8.98;;;6.57;;
61741;SDS011;47650;49.848;9.620;2024-01-15T13:27:32;9.85;;;6.32;;
61741;SDS011;47650;49.848;9.620;2024-01-15T13:30:02;10.88;;;6.68;;
61741;SDS011;47650;49.848;9.620;2024-01-15T13:32:38;10.95;;;7.10;;
61741;SDS011;47650;49.848;9.620;2024-01-15T13:35:04;10.25;;;6.22;;
61741;SDS011;47650;49.848;9.620;2024-01-15T13:37:32;11.30;;;7.97;;
61741;SDS011;47650;49.848;9.620;2024-01-15T13:40:00;12.07;;;7.72;;
61741;SDS011;47650;49.848;9.620;2024-01-15T13:42:25;10.68;;;7.47;;
61741;SDS011;47650;49.848;9.620;2024-01-15T13:44:52;16.13;;;11.35;;
61741;SDS011;47650;49.848;9.620;2024-01-15T13:47:17;17.30;;;10.30;;
61741;SDS011;47650;49.848;9.620;2024-01-15T13:49:43;15.20;;;10.25;;
61741;SDS011;47650;49.848;9.620;2024-01-15T13:52:08;15.60;;;7.93;;
61741;SDS011;47650;49.848;9.620;2024-01-15T13:54:33;13.90;;;8.80;;
61741;SDS011;47650;49.848;9.620;2024-01-15T13:57:00;18.35;;;10.48;;
61741;SDS011;47650;49.848;9.620;2024-01-15T13:59:26;18.08;;;11.52;;
61741;SDS011;47650;49.848;9.620;2024-01-15T14:01:58;14.68;;;9.57;;
61741;SDS011;47650;49.848;9.620;2024-01-15T14:04:24;16.55;;;10.43;;
61741;SDS011;47650;49.848;9.620;2024-01-15T14:06:50;12.20;;;7.50;;
61741;SDS011;47650;49.848;9.620;2024-01-15T14:09:16;20.00;;;11.35;;
61741;SDS011;47650;49.848;9.620;2024-01-15T14:11:41;17.50;;;9.75;;
61741;SDS011;47650;49.848;9.620;2024-01-15T14:14:08;16.70;;;10.27;;
61741;SDS011;47650;49.848;9.620;2024-01-15T14:16:34;18.55;;;10.15;;
61741;SDS011;47650;49.848;9.620;2024-01-15T14:19:01;17.52;;;11.95;;
61741;SDS011;47650;49.848;9.620;2024-01-15T14:21:28;16.20;;;8.25;;
61741;SDS011;47650;49.848;9.620;2024-01-15T14:23:53;14.05;;;9.85;;
61741;SDS011;47650;49.848;9.620;2024-01-15T14:26:18;10.82;;;7.18;;
61741;SDS011;47650;49.848;9.620;2024-01-15T14:28:43;16.80;;;10.05;;
61741;SDS011;47650;49.848;9.620;2024-01-15T14:31:12;13.00;;;7.65;;
61741;SDS011;47650;49.848;9.620;2024-01-15T14:33:37;13.73;;;8.73;;
61741;SDS011;47650;49.848;9.620;2024-01-15T14:36:04;16.35;;;10.35;;
61741;SDS011;47650;49.848;9.620;2024-01-15T14:38:30;14.35;;;10.35;;